El Paso, Illinois
Current Conditions -  °F | °C
As of 9:56 PM on Saturday 22 Nov 2014 (Local Time) from KBMI Reporting Station
Broken Clouds Broken Clouds  
Wind Chill: 50°   Ceiling: 1400
Heat Index: 50°   Visibility: 10mi
Dew Point: 47°   Wind: 16mph
Humidity: 89%   Direction: 190°S
Pressure: 29.88"   Gusts: NA
Location:  40.74°N, 89.02°W
Report Text: KBMI 230356Z 19014KT 10SM BKN014 10/08 A2988 RMK AO2 T01000083 SLP124
Loading
Personal Weather Stations






























Interactive Weather Map New forecast layout! Learn more

10-Day Weather Forecast

Advertisements
Track Severe Weather on mobile